createdAt,value
2019-05-14T00:10:12.024Z,6.52
2019-05-14T00:20:52.490Z,6.35
2019-05-14T00:31:28.768Z,6.18
2019-05-14T00:42:08.759Z,5.97
2019-05-14T00:52:51.825Z,5.77
2019-05-14T01:03:34.363Z,5.61
2019-05-14T01:14:17.301Z,5.52
2019-05-14T01:25:01.747Z,5.46
2019-05-14T01:35:42.497Z,5.39
2019-05-14T01:46:24.926Z,5.17
2019-05-14T01:57:06.906Z,5.04
2019-05-14T02:07:47.591Z,5.00
2019-05-14T02:18:31.189Z,4.85
2019-05-14T02:29:12.733Z,4.69
2019-05-14T02:39:55.690Z,4.49
2019-05-14T02:50:39.639Z,4.29
2019-05-14T03:01:19.962Z,4.14
2019-05-14T03:11:59.574Z,4.06
2019-05-14T03:22:54.937Z,4.03
2019-05-14T03:33:22.221Z,3.90
2019-05-14T03:44:01.697Z,3.70
2019-05-14T03:54:41.043Z,3.62
2019-05-14T04:05:22.597Z,3.62
2019-05-14T04:15:59.939Z,3.50
2019-05-14T04:26:56.372Z,3.45
2019-05-14T04:37:20.470Z,3.59
2019-05-14T04:48:22.554Z,8.54
2019-05-14T04:58:52.508Z,15.59
2019-05-14T05:09:41.853Z,18.63
2019-05-14T05:20:24.838Z,20.28
2019-05-14T05:30:59.840Z,20.93
2019-05-14T05:41:38.468Z,16.49
2019-05-14T05:52:15.566Z,13.59
2019-05-14T06:02:44.830Z,15.29
2019-05-14T06:13:34.078Z,21.38
2019-05-14T06:24:19.949Z,24.18
2019-05-14T06:34:59.162Z,21.45
2019-05-14T06:45:38.243Z,18.82
2019-05-14T06:56:22.783Z,21.27
2019-05-14T07:07:08.383Z,15.69
2019-05-14T07:17:45.575Z,11.17
2019-05-14T07:28:23.804Z,10.40
2019-05-14T07:39:04.972Z,10.16
2019-05-14T07:49:48.986Z,10.31
2019-05-14T08:00:28.556Z,10.57
2019-05-14T08:11:08.614Z,10.65
2019-05-14T08:21:48.127Z,11.10
2019-05-14T08:32:29.895Z,10.96
2019-05-14T08:43:12.475Z,11.52
2019-05-14T08:53:53.889Z,11.82
2019-05-14T09:04:33.999Z,12.01
2019-05-14T09:15:18.635Z,12.60
2019-05-14T09:25:58.903Z,12.95
2019-05-14T09:36:39.327Z,13.30
2019-05-14T09:47:20.600Z,13.76
2019-05-14T09:58:03.994Z,13.73
2019-05-14T10:08:48.553Z,13.89
2019-05-14T10:19:30.804Z,14.26
2019-05-14T10:30:13.716Z,14.80
2019-05-14T10:40:55.003Z,15.33
2019-05-14T10:51:38.914Z,15.17
2019-05-14T11:02:14.905Z,15.24
2019-05-14T11:12:59.809Z,15.67
2019-05-14T11:23:42.964Z,16.57
2019-05-14T11:34:28.799Z,15.40
2019-05-14T11:45:10.927Z,16.12
2019-05-14T11:55:54.823Z,15.81
2019-05-14T12:06:39.312Z,16.44
2019-05-14T12:17:21.691Z,16.27
2019-05-14T12:28:04.041Z,17.13
2019-05-14T12:38:48.545Z,16.51
2019-05-14T12:49:31.673Z,16.60
2019-05-14T13:00:12.783Z,16.63
2019-05-14T13:10:58.820Z,18.24
2019-05-14T13:21:39.092Z,17.12
2019-05-14T13:32:23.773Z,17.82
2019-05-14T13:43:00.359Z,17.00
2019-05-14T13:53:39.975Z,16.53
2019-05-14T14:04:25.150Z,17.89
2019-05-14T14:15:00.148Z,17.93
2019-05-14T14:25:44.653Z,19.33
2019-05-14T14:36:24.062Z,17.88
2019-05-14T14:47:08.051Z,18.41
2019-05-14T14:57:53.958Z,17.88
2019-05-14T15:08:30.974Z,17.76
2019-05-14T15:19:19.149Z,18.39
2019-05-14T15:29:59.340Z,18.64
2019-05-14T15:40:40.169Z,19.12
2019-05-14T15:51:19.493Z,18.21
2019-05-14T16:02:09.062Z,18.56
2019-05-14T16:12:49.569Z,17.78
2019-05-14T16:23:32.283Z,17.58
2019-05-14T16:34:12.021Z,17.73
2019-05-14T16:44:55.077Z,17.60
2019-05-14T16:55:38.291Z,17.56
2019-05-14T17:06:18.765Z,17.59
2019-05-14T17:17:02.103Z,17.14
2019-05-14T17:27:45.005Z,16.93
2019-05-14T17:38:29.409Z,16.40
2019-05-14T17:49:07.808Z,15.93
2019-05-14T17:59:50.872Z,15.69
2019-05-14T18:10:25.208Z,15.64
2019-05-14T18:21:02.143Z,15.41
2019-05-14T18:31:35.432Z,15.13
2019-05-14T18:42:14.800Z,14.95
2019-05-14T18:52:49.969Z,14.67
2019-05-14T19:03:24.485Z,14.34
2019-05-14T19:14:02.282Z,14.01
2019-05-14T19:24:39.195Z,13.75
2019-05-14T19:35:14.701Z,13.50
2019-05-14T19:45:48.361Z,13.24
2019-05-14T19:56:17.267Z,12.98
2019-05-14T20:06:56.339Z,12.79
2019-05-14T20:17:31.627Z,12.49
2019-05-14T20:28:11.776Z,12.04
2019-05-14T20:38:48.159Z,11.53
2019-05-14T20:49:20.076Z,11.09
2019-05-14T20:59:51.396Z,10.63
2019-05-14T21:10:24.332Z,10.25
2019-05-14T21:21:01.196Z,9.80
2019-05-14T21:31:38.454Z,9.53
2019-05-14T21:42:19.461Z,9.24
2019-05-14T21:52:46.084Z,9.00
2019-05-14T22:03:23.452Z,8.76
2019-05-14T22:14:01.308Z,8.57
2019-05-14T22:24:41.198Z,8.37
2019-05-14T22:35:18.797Z,8.22
2019-05-14T22:45:53.188Z,8.01
2019-05-14T22:56:29.021Z,7.71
2019-05-14T23:07:08.418Z,7.55
2019-05-14T23:17:48.231Z,7.39
2019-05-14T23:28:23.372Z,7.14
2019-05-14T23:39:04.356Z,6.91
2019-05-14T23:49:48.342Z,6.68
